Roza A — TCRB7 — position and weather

sailwx.info

Track history (hours):
 
Tides and Currents Weather Stations Pressure Air Temp Water Temp Dewpoint Dewpoint Depression Visibility Wind Speed Wind Dir Waves Ship Positions

Roza A

Last reported at 2016-Jun-27 13:33 UTC. Time now 2016-Jun-30 01:27 UTC.
Position N 35°54' E 034°50'.

Length 169 m; draft 7.1 m.

Type: Ship (hazmat cat A). MMSI: 271001057.

Date/timePositionNaut miles runAvg speedWind from/ knotsBaromVisibWave heightAir tempDewpointWater temp
2016-Jun-27 13:33N 35°54' E 034°50'1616.0
2016-Jun-27 12:33N 35°38' E 034°53'1816.6
2016-Jun-27 11:30N 35°21' E 034°56'2016.5
2016-Jun-27 10:17N 35°01' E 034°59'1216.3
2016-Jun-27 09:34N 34°49' E 035°02'2215.5
2016-Jun-27 08:10N 34°28' E 035°06'915.1
2016-Jun-27 07:34N 34°19' E 035°08'1515.1
2016-Jun-27 06:34N 34°04' E 035°10'1211.8
2016-Jun-27 05:34N 33°55' E 035°20'10 9.7
2016-Jun-27 04:31N 33°55' E 035°32'0 0.0
2016-Jun-26 18:33N 33°55' E 035°32'3 2.7
2016-Jun-26 17:33N 33°57' E 035°31'1 1.2
2016-Jun-26 16:33N 33°56' E 035°31'1913.4
2016-Jun-26 15:08N 33°56' E 035°08'1115.0
2016-Jun-26 14:24N 33°58' E 034°55'1315.1
2016-Jun-26 13:33N 34°00' E 034°40'1515.0
2016-Jun-26 12:33N 34°03' E 034°22'1514.9
2016-Jun-26 11:33N 34°06' E 034°04'1515.0
2016-Jun-26 10:33N 34°09' E 033°46'1515.0
2016-Jun-26 09:32N 34°12' E 033°28'1515.4
2016-Jun-26 08:33N 34°15' E 033°10'1615.9
2016-Jun-26 07:33N 34°18' E 032°51'1615.7
2016-Jun-26 06:33N 34°20' E 032°33'1515.3
2016-Jun-26 05:33N 34°24' E 032°15'1515.1
2016-Jun-26 04:33N 34°26' E 031°56'1515.2
2016-Jun-26 03:33N 34°29' E 031°38'2115.2
2016-Jun-26 02:11N 34°33' E 031°13'2615.4
2016-Jun-26 00:30N 34°38' E 030°42'1415.4
2016-Jun-25 23:33N 34°41' E 030°25'4615.3
2016-Jun-25 20:33N 34°49' E 029°30'30514.3
2016-Jun-24 23:15N 37°11' E 023°57'1115.6
2016-Jun-24 22:33N 37°21' E 023°51'1514.9
2016-Jun-24 21:33N 37°35' E 023°45'1514.9
2016-Jun-24 20:33N 37°49' E 023°37'9 8.3
2016-Jun-24 19:32N 37°57' E 023°36'0 0.0
2016-Jun-24 18:33N 37°57' E 023°36'0 0.0
2016-Jun-24 17:33N 37°57' E 023°36'0 0.0
2016-Jun-24 16:33N 37°57' E 023°36'0 0.0
2016-Jun-24 15:33N 37°57' E 023°36'0 0.0
2016-Jun-24 14:33N 37°57' E 023°36'0 0.0
2016-Jun-24 13:33N 37°57' E 023°36'0 0.0
2016-Jun-24 12:33N 37°57' E 023°36'0 0.0
2016-Jun-24 11:33N 37°57' E 023°36'0 0.0
2016-Jun-24 10:33N 37°57' E 023°36'0 0.0
2016-Jun-24 09:33N 37°57' E 023°36'0 0.0
2016-Jun-24 08:33N 37°57' E 023°36'0 0.0
2016-Jun-24 07:33N 37°57' E 023°36'0 0.0
2016-Jun-24 04:33N 37°57' E 023°36'0 0.0
2016-Jun-24 03:33N 37°57' E 023°36'0 0.0
2016-Jun-24 02:33N 37°57' E 023°36'3 2.8
2016-Jun-24 01:33N 37°55' E 023°37'3 3.3
2016-Jun-24 00:31N 37°53' E 023°33'0 0.0
2016-Jun-23 23:31N 37°53' E 023°33'0 0.0
2016-Jun-23 22:31N 37°53' E 023°33'0 0.0
2016-Jun-23 21:31N 37°53' E 023°33'0 0.0
2016-Jun-23 20:31N 37°53' E 023°33'0 0.0
2016-Jun-23 19:31N 37°53' E 023°33'0 0.0
2016-Jun-23 18:31N 37°53' E 023°33'0 0.0
2016-Jun-23 17:31N 37°53' E 023°33'0 0.1
2016-Jun-23 16:31N 37°53' E 023°33'0 0.0
2016-Jun-23 15:31N 37°53' E 023°33'0 0.1
2016-Jun-23 14:31N 37°53' E 023°33'0 0.0
2016-Jun-23 13:31N 37°52' E 023°33'0 0.0
2016-Jun-23 12:31N 37°52' E 023°33'0 0.0
2016-Jun-23 11:31N 37°53' E 023°33'0 0.0
2016-Jun-23 10:31N 37°52' E 023°33'0 0.0
2016-Jun-23 09:31N 37°52' E 023°33'0 0.0
2016-Jun-23 08:31N 37°52' E 023°33'0 0.0
2016-Jun-23 07:31N 37°52' E 023°33'0 0.0
2016-Jun-23 05:31N 37°52' E 023°33'0 0.0
2016-Jun-23 04:31N 37°53' E 023°33'0 0.0
2016-Jun-23 03:31N 37°53' E 023°33'0 0.0
2016-Jun-23 02:31N 37°53' E 023°33'0 0.0
2016-Jun-23 01:31N 37°53' E 023°33'0 0.0
2016-Jun-23 00:31N 37°53' E 023°33'0 0.0
2016-Jun-22 23:31N 37°53' E 023°33'0 0.0
2016-Jun-22 22:31N 37°53' E 023°33'0 0.0
2016-Jun-22 21:31N 37°53' E 023°33'0 0.0
2016-Jun-22 20:31N 37°53' E 023°33'0 0.0
2016-Jun-22 19:31N 37°53' E 023°33'0 0.0
2016-Jun-22 18:31N 37°53' E 023°33'0 0.0
2016-Jun-22 17:31N 37°53' E 023°33'0 0.0
2016-Jun-22 16:31N 37°53' E 023°33'0 0.0
2016-Jun-22 15:31N 37°52' E 023°33'0 0.0
2016-Jun-22 14:31N 37°53' E 023°33'0 0.0
2016-Jun-22 13:31N 37°52' E 023°33'0 0.0
2016-Jun-22 12:31N 37°53' E 023°33'0 0.0
2016-Jun-22 11:31N 37°52' E 023°33'0 0.0
2016-Jun-22 10:31N 37°52' E 023°33'0 0.0
2016-Jun-22 09:31N 37°52' E 023°33'0 0.0
2016-Jun-22 08:31N 37°52' E 023°33'0 0.0
2016-Jun-22 07:31N 37°53' E 023°33'0 0.0
2016-Jun-22 06:31N 37°52' E 023°33'0 0.0
2016-Jun-22 05:31N 37°52' E 023°33'0 0.0
2016-Jun-22 04:31N 37°52' E 023°33'0 0.0
2016-Jun-22 03:31N 37°52' E 023°33'0 0.0
2016-Jun-22 02:31N 37°52' E 023°33'0 0.0
2016-Jun-22 01:31N 37°53' E 023°33'0 0.0
2016-Jun-22 00:31N 37°52' E 023°33'0 0.0
2016-Jun-21 23:31N 37°52' E 023°33'0 0.0
2016-Jun-21 22:31N 37°52' E 023°33'0 0.0
2016-Jun-21 21:31N 37°52' E 023°33'0 0.0
2016-Jun-21 20:31N 37°52' E 023°33'0 0.0
2016-Jun-21 19:31N 37°53' E 023°33'0 0.0
2016-Jun-21 18:31N 37°52' E 023°33'0 0.0
2016-Jun-21 17:31N 37°52' E 023°33'0 0.0
2016-Jun-21 16:31N 37°53' E 023°33'0 0.0
2016-Jun-21 15:31N 37°53' E 023°33'0 0.0
2016-Jun-21 14:31N 37°53' E 023°33'0 0.0
2016-Jun-21 13:31N 37°53' E 023°33'0 0.0
2016-Jun-21 12:31N 37°53' E 023°33'0 0.0
2016-Jun-21 11:31N 37°52' E 023°33'0 0.0
2016-Jun-21 08:33N 37°53' E 023°33'3 2.8
2016-Jun-21 07:33N 37°52' E 023°37'2613.0
2016-Jun-21 05:33N 37°27' E 023°45'1515.3
2016-Jun-21 04:33N 37°12' E 023°41'1515.2
2016-Jun-21 03:33N 36°57' E 023°36'1515.3
2016-Jun-21 02:33N 36°43' E 023°28'1615.5
2016-Jun-21 01:32N 36°29' E 023°19'15315.2
2016-Jun-20 15:25N 36°24' E 020°09'25615.0
2016-Jun-19 22:18N 36°35' E 014°51'1215.8
2016-Jun-19 21:33N 36°38' E 014°36'1616.1
2016-Jun-19 20:33N 36°44' E 014°17'1616.3
2016-Jun-19 19:33N 36°50' E 013°59'1615.9
2016-Jun-19 18:34N 36°56' E 013°41'1615.8
2016-Jun-19 17:33N 37°03' E 013°22'8215.9
2016-Jun-19 12:23N 37°44' E 011°53'13016.1
2016-Jun-19 04:18N 38°54' E 009°33'1216.2
2016-Jun-19 03:33N 39°01' E 009°20'1414.1
2016-Jun-19 02:33N 39°10' E 009°06'4 3.6
2016-Jun-19 01:32N 39°13' E 009°04'0 0.0
2016-Jun-19 00:32N 39°13' E 009°04'0 0.0
2016-Jun-18 23:32N 39°13' E 009°04'0 0.0
2016-Jun-18 22:32N 39°13' E 009°04'0 0.0
2016-Jun-18 21:32N 39°13' E 009°04'0 0.0
2016-Jun-18 20:32N 39°13' E 009°04'0 0.0
2016-Jun-18 19:32N 39°13' E 009°04'0 0.0
2016-Jun-18 18:32N 39°13' E 009°04'5 5.0
2016-Jun-18 17:33N 39°08' E 009°06'1514.6
2016-Jun-18 16:33N 38°54' E 009°03'1515.3
2016-Jun-18 15:33N 38°47' E 008°46'2015.6
2016-Jun-18 14:15N 38°47' E 008°20'1216.3
2016-Jun-18 13:32N 38°55' E 008°09'1615.9
2016-Jun-18 12:33N 39°07' E 007°55'23016.1
2016-Jun-17 22:14N 42°29' E 005°31'1116.0
2016-Jun-17 21:33N 42°38' E 005°24'3516.1
2016-Jun-17 19:25N 43°09' E 005°02'1314.9
2016-Jun-17 18:33N 43°21' E 004°58'6 5.5
2016-Jun-17 17:31N 43°24' E 004°51'  
Track history (hours):
 
Tides and Currents Weather Stations Pressure Air Temp Water Temp Dewpoint Dewpoint Depression Visibility Wind Speed Wind Dir Waves Ship Positions

Roza A

Last reported at 2016-Jun-27 13:33 UTC. Time now 2016-Jun-30 01:27 UTC.
Position N 35°54' E 034°50'.

Length 169 m; draft 7.1 m.

Type: Ship (hazmat cat A). MMSI: 271001057.

Date/timePositionNaut miles runAvg speedWind from/ knotsBaromVisibWave heightAir tempDewpointWater temp
2016-Jun-27 13:33N 35°54' E 034°50'1616.0
2016-Jun-27 12:33N 35°38' E 034°53'1816.6
2016-Jun-27 11:30N 35°21' E 034°56'2016.5
2016-Jun-27 10:17N 35°01' E 034°59'1216.3
2016-Jun-27 09:34N 34°49' E 035°02'2215.5
2016-Jun-27 08:10N 34°28' E 035°06'915.1
2016-Jun-27 07:34N 34°19' E 035°08'1515.1
2016-Jun-27 06:34N 34°04' E 035°10'1211.8
2016-Jun-27 05:34N 33°55' E 035°20'10 9.7
2016-Jun-27 04:31N 33°55' E 035°32'0 0.0
2016-Jun-26 18:33N 33°55' E 035°32'3 2.7
2016-Jun-26 17:33N 33°57' E 035°31'1 1.2
2016-Jun-26 16:33N 33°56' E 035°31'1913.4
2016-Jun-26 15:08N 33°56' E 035°08'1115.0
2016-Jun-26 14:24N 33°58' E 034°55'1315.1
2016-Jun-26 13:33N 34°00' E 034°40'1515.0
2016-Jun-26 12:33N 34°03' E 034°22'1514.9
2016-Jun-26 11:33N 34°06' E 034°04'1515.0
2016-Jun-26 10:33N 34°09' E 033°46'1515.0
2016-Jun-26 09:32N 34°12' E 033°28'1515.4
2016-Jun-26 08:33N 34°15' E 033°10'1615.9
2016-Jun-26 07:33N 34°18' E 032°51'1615.7
2016-Jun-26 06:33N 34°20' E 032°33'1515.3
2016-Jun-26 05:33N 34°24' E 032°15'1515.1
2016-Jun-26 04:33N 34°26' E 031°56'1515.2
2016-Jun-26 03:33N 34°29' E 031°38'2115.2
2016-Jun-26 02:11N 34°33' E 031°13'2615.4
2016-Jun-26 00:30N 34°38' E 030°42'1415.4
2016-Jun-25 23:33N 34°41' E 030°25'4615.3
2016-Jun-25 20:33N 34°49' E 029°30'30514.3
2016-Jun-24 23:15N 37°11' E 023°57'1115.6
2016-Jun-24 22:33N 37°21' E 023°51'1514.9
2016-Jun-24 21:33N 37°35' E 023°45'1514.9
2016-Jun-24 20:33N 37°49' E 023°37'9 8.3
2016-Jun-24 19:32N 37°57' E 023°36'0 0.0
2016-Jun-24 18:33N 37°57' E 023°36'0 0.0
2016-Jun-24 17:33N 37°57' E 023°36'0 0.0
2016-Jun-24 16:33N 37°57' E 023°36'0 0.0
2016-Jun-24 15:33N 37°57' E 023°36'0 0.0
2016-Jun-24 14:33N 37°57' E 023°36'0 0.0
2016-Jun-24 13:33N 37°57' E 023°36'0 0.0
2016-Jun-24 12:33N 37°57' E 023°36'0 0.0
2016-Jun-24 11:33N 37°57' E 023°36'0 0.0
2016-Jun-24 10:33N 37°57' E 023°36'0 0.0
2016-Jun-24 09:33N 37°57' E 023°36'0 0.0
2016-Jun-24 08:33N 37°57' E 023°36'0 0.0
2016-Jun-24 07:33N 37°57' E 023°36'0 0.0
2016-Jun-24 04:33N 37°57' E 023°36'0 0.0
2016-Jun-24 03:33N 37°57' E 023°36'0 0.0
2016-Jun-24 02:33N 37°57' E 023°36'3 2.8
2016-Jun-24 01:33N 37°55' E 023°37'3 3.3
2016-Jun-24 00:31N 37°53' E 023°33'0 0.0
2016-Jun-23 23:31N 37°53' E 023°33'0 0.0
2016-Jun-23 22:31N 37°53' E 023°33'0 0.0
2016-Jun-23 21:31N 37°53' E 023°33'0 0.0
2016-Jun-23 20:31N 37°53' E 023°33'0 0.0
2016-Jun-23 19:31N 37°53' E 023°33'0 0.0
2016-Jun-23 18:31N 37°53' E 023°33'0 0.0
2016-Jun-23 17:31N 37°53' E 023°33'0 0.1
2016-Jun-23 16:31N 37°53' E 023°33'0 0.0
2016-Jun-23 15:31N 37°53' E 023°33'0 0.1
2016-Jun-23 14:31N 37°53' E 023°33'0 0.0
2016-Jun-23 13:31N 37°52' E 023°33'0 0.0
2016-Jun-23 12:31N 37°52' E 023°33'0 0.0
2016-Jun-23 11:31N 37°53' E 023°33'0 0.0
2016-Jun-23 10:31N 37°52' E 023°33'0 0.0
2016-Jun-23 09:31N 37°52' E 023°33'0 0.0
2016-Jun-23 08:31N 37°52' E 023°33'0 0.0
2016-Jun-23 07:31N 37°52' E 023°33'0 0.0
2016-Jun-23 05:31N 37°52' E 023°33'0 0.0
2016-Jun-23 04:31N 37°53' E 023°33'0 0.0
2016-Jun-23 03:31N 37°53' E 023°33'0 0.0
2016-Jun-23 02:31N 37°53' E 023°33'0 0.0
2016-Jun-23 01:31N 37°53' E 023°33'0 0.0
2016-Jun-23 00:31N 37°53' E 023°33'0 0.0
2016-Jun-22 23:31N 37°53' E 023°33'0 0.0
2016-Jun-22 22:31N 37°53' E 023°33'0 0.0
2016-Jun-22 21:31N 37°53' E 023°33'0 0.0
2016-Jun-22 20:31N 37°53' E 023°33'0 0.0
2016-Jun-22 19:31N 37°53' E 023°33'0 0.0
2016-Jun-22 18:31N 37°53' E 023°33'0 0.0
2016-Jun-22 17:31N 37°53' E 023°33'0 0.0
2016-Jun-22 16:31N 37°53' E 023°33'0 0.0
2016-Jun-22 15:31N 37°52' E 023°33'0 0.0
2016-Jun-22 14:31N 37°53' E 023°33'0 0.0
2016-Jun-22 13:31N 37°52' E 023°33'0 0.0
2016-Jun-22 12:31N 37°53' E 023°33'0 0.0
2016-Jun-22 11:31N 37°52' E 023°33'0 0.0
2016-Jun-22 10:31N 37°52' E 023°33'0 0.0
2016-Jun-22 09:31N 37°52' E 023°33'0 0.0
2016-Jun-22 08:31N 37°52' E 023°33'0 0.0
2016-Jun-22 07:31N 37°53' E 023°33'0 0.0
2016-Jun-22 06:31N 37°52' E 023°33'0 0.0
2016-Jun-22 05:31N 37°52' E 023°33'0 0.0
2016-Jun-22 04:31N 37°52' E 023°33'0 0.0
2016-Jun-22 03:31N 37°52' E 023°33'0 0.0
2016-Jun-22 02:31N 37°52' E 023°33'0 0.0
2016-Jun-22 01:31N 37°53' E 023°33'0 0.0
2016-Jun-22 00:31N 37°52' E 023°33'0 0.0
2016-Jun-21 23:31N 37°52' E 023°33'0 0.0
2016-Jun-21 22:31N 37°52' E 023°33'0 0.0
2016-Jun-21 21:31N 37°52' E 023°33'0 0.0
2016-Jun-21 20:31N 37°52' E 023°33'0 0.0
2016-Jun-21 19:31N 37°53' E 023°33'0 0.0
2016-Jun-21 18:31N 37°52' E 023°33'0 0.0
2016-Jun-21 17:31N 37°52' E 023°33'0 0.0
2016-Jun-21 16:31N 37°53' E 023°33'0 0.0
2016-Jun-21 15:31N 37°53' E 023°33'0 0.0
2016-Jun-21 14:31N 37°53' E 023°33'0 0.0
2016-Jun-21 13:31N 37°53' E 023°33'0 0.0
2016-Jun-21 12:31N 37°53' E 023°33'0 0.0
2016-Jun-21 11:31N 37°52' E 023°33'0 0.0
2016-Jun-21 08:33N 37°53' E 023°33'3 2.8
2016-Jun-21 07:33N 37°52' E 023°37'2613.0
2016-Jun-21 05:33N 37°27' E 023°45'1515.3
2016-Jun-21 04:33N 37°12' E 023°41'1515.2
2016-Jun-21 03:33N 36°57' E 023°36'1515.3
2016-Jun-21 02:33N 36°43' E 023°28'1615.5
2016-Jun-21 01:32N 36°29' E 023°19'15315.2
2016-Jun-20 15:25N 36°24' E 020°09'25615.0
2016-Jun-19 22:18N 36°35' E 014°51'1215.8
2016-Jun-19 21:33N 36°38' E 014°36'1616.1
2016-Jun-19 20:33N 36°44' E 014°17'1616.3
2016-Jun-19 19:33N 36°50' E 013°59'1615.9
2016-Jun-19 18:34N 36°56' E 013°41'1615.8
2016-Jun-19 17:33N 37°03' E 013°22'8215.9
2016-Jun-19 12:23N 37°44' E 011°53'13016.1
2016-Jun-19 04:18N 38°54' E 009°33'1216.2
2016-Jun-19 03:33N 39°01' E 009°20'1414.1
2016-Jun-19 02:33N 39°10' E 009°06'4 3.6
2016-Jun-19 01:32N 39°13' E 009°04'0 0.0
2016-Jun-19 00:32N 39°13' E 009°04'0 0.0
2016-Jun-18 23:32N 39°13' E 009°04'0 0.0
2016-Jun-18 22:32N 39°13' E 009°04'0 0.0
2016-Jun-18 21:32N 39°13' E 009°04'0 0.0
2016-Jun-18 20:32N 39°13' E 009°04'0 0.0
2016-Jun-18 19:32N 39°13' E 009°04'0 0.0
2016-Jun-18 18:32N 39°13' E 009°04'5 5.0
2016-Jun-18 17:33N 39°08' E 009°06'1514.6
2016-Jun-18 16:33N 38°54' E 009°03'1515.3
2016-Jun-18 15:33N 38°47' E 008°46'2015.6
2016-Jun-18 14:15N 38°47' E 008°20'1216.3
2016-Jun-18 13:32N 38°55' E 008°09'1615.9
2016-Jun-18 12:33N 39°07' E 007°55'23016.1
2016-Jun-17 22:14N 42°29' E 005°31'1116.0
2016-Jun-17 21:33N 42°38' E 005°24'3516.1
2016-Jun-17 19:25N 43°09' E 005°02'1314.9
2016-Jun-17 18:33N 43°21' E 004°58'6 5.5
2016-Jun-17 17:31N 43°24' E 004°51'  

Dump ship's entire track history